sensor_id;sensor_type;location;lat;lon;timestamp;P1;durP1;ratioP1;P2;durP2;ratioP2
52888;SDS011;41413;52.770;6.892;2023-05-13T00:01:19;661.90;;;597.70;;
52888;SDS011;41413;52.770;6.892;2023-05-13T00:03:46;584.65;;;528.75;;
52888;SDS011;41413;52.770;6.892;2023-05-13T00:06:13;631.58;;;569.05;;
52888;SDS011;41413;52.770;6.892;2023-05-13T00:08:39;607.05;;;548.63;;
52888;SDS011;41413;52.770;6.892;2023-05-13T00:11:06;562.50;;;508.40;;
52888;SDS011;41413;52.770;6.892;2023-05-13T00:13:33;641.70;;;580.90;;
52888;SDS011;41413;52.770;6.892;2023-05-13T00:16:00;627.55;;;565.20;;
52888;SDS011;41413;52.770;6.892;2023-05-13T00:18:27;667.30;;;604.15;;
52888;SDS011;41413;52.770;6.892;2023-05-13T00:20:54;760.78;;;685.60;;
52888;SDS011;41413;52.770;6.892;2023-05-13T00:23:21;621.60;;;565.13;;
52888;SDS011;41413;52.770;6.892;2023-05-13T00:25:48;624.22;;;562.58;;
52888;SDS011;41413;52.770;6.892;2023-05-13T00:28:14;594.88;;;538.67;;
52888;SDS011;41413;52.770;6.892;2023-05-13T00:30:42;609.65;;;550.65;;
52888;SDS011;41413;52.770;6.892;2023-05-13T00:33:10;614.63;;;553.28;;
52888;SDS011;41413;52.770;6.892;2023-05-13T00:35:37;621.88;;;561.30;;
52888;SDS011;41413;52.770;6.892;2023-05-13T00:38:04;665.70;;;598.75;;
52888;SDS011;41413;52.770;6.892;2023-05-13T00:40:31;681.15;;;613.78;;
52888;SDS011;41413;52.770;6.892;2023-05-13T00:43:02;610.53;;;554.20;;
52888;SDS011;41413;52.770;6.892;2023-05-13T00:45:28;582.08;;;523.38;;
52888;SDS011;41413;52.770;6.892;2023-05-13T00:47:55;604.08;;;542.08;;
52888;SDS011;41413;52.770;6.892;2023-05-13T00:50:23;676.85;;;610.72;;
52888;SDS011;41413;52.770;6.892;2023-05-13T00:52:50;668.38;;;601.60;;
52888;SDS011;41413;52.770;6.892;2023-05-13T00:55:17;636.90;;;572.20;;
52888;SDS011;41413;52.770;6.892;2023-05-13T00:57:43;611.03;;;548.53;;
52888;SDS011;41413;52.770;6.892;2023-05-13T01:00:10;667.33;;;601.78;;
52888;SDS011;41413;52.770;6.892;2023-05-13T01:03:24;642.45;;;578.13;;
52888;SDS011;41413;52.770;6.892;2023-05-13T01:11:23;600.88;;;545.13;;
52888;SDS011;41413;52.770;6.892;2023-05-13T01:14:05;564.05;;;509.88;;
52888;SDS011;41413;52.770;6.892;2023-05-13T01:19:24;631.10;;;568.72;;
52888;SDS011;41413;52.770;6.892;2023-05-13T01:21:52;751.47;;;674.78;;
52888;SDS011;41413;52.770;6.892;2023-05-13T01:24:19;652.88;;;587.45;;
52888;SDS011;41413;52.770;6.892;2023-05-13T01:26:46;644.05;;;580.55;;
52888;SDS011;41413;52.770;6.892;2023-05-13T01:29:14;733.22;;;661.10;;
52888;SDS011;41413;52.770;6.892;2023-05-13T01:31:41;627.83;;;563.00;;
52888;SDS011;41413;52.770;6.892;2023-05-13T01:34:08;620.13;;;558.83;;
52888;SDS011;41413;52.770;6.892;2023-05-13T01:36:37;641.33;;;577.22;;
52888;SDS011;41413;52.770;6.892;2023-05-13T01:39:04;551.10;;;495.10;;
52888;SDS011;41413;52.770;6.892;2023-05-13T01:41:32;630.22;;;568.15;;
52888;SDS011;41413;52.770;6.892;2023-05-13T01:43:59;589.97;;;530.13;;
52888;SDS011;41413;52.770;6.892;2023-05-13T01:46:26;560.00;;;503.13;;
52888;SDS011;41413;52.770;6.892;2023-05-13T01:48:53;643.65;;;580.60;;
52888;SDS011;41413;52.770;6.892;2023-05-13T01:51:19;588.42;;;528.70;;
52888;SDS011;41413;52.770;6.892;2023-05-13T01:53:46;600.17;;;539.45;;
52888;SDS011;41413;52.770;6.892;2023-05-13T01:56:13;623.08;;;563.08;;
52888;SDS011;41413;52.770;6.892;2023-05-13T01:58:40;568.60;;;511.48;;
52888;SDS011;41413;52.770;6.892;2023-05-13T02:01:06;652.75;;;589.17;;
52888;SDS011;41413;52.770;6.892;2023-05-13T02:03:34;630.83;;;568.30;;
52888;SDS011;41413;52.770;6.892;2023-05-13T02:06:02;599.38;;;539.92;;
52888;SDS011;41413;52.770;6.892;2023-05-13T02:08:29;671.47;;;605.42;;
52888;SDS011;41413;52.770;6.892;2023-05-13T02:10:56;610.65;;;547.92;;
52888;SDS011;41413;52.770;6.892;2023-05-13T02:13:24;608.20;;;547.85;;
52888;SDS011;41413;52.770;6.892;2023-05-13T02:15:52;605.90;;;545.42;;
52888;SDS011;41413;52.770;6.892;2023-05-13T02:18:19;604.25;;;546.15;;
52888;SDS011;41413;52.770;6.892;2023-05-13T02:20:46;638.00;;;573.13;;
52888;SDS011;41413;52.770;6.892;2023-05-13T02:23:13;594.42;;;536.80;;
52888;SDS011;41413;52.770;6.892;2023-05-13T02:25:40;642.72;;;579.03;;
52888;SDS011;41413;52.770;6.892;2023-05-13T02:28:07;672.42;;;607.33;;
52888;SDS011;41413;52.770;6.892;2023-05-13T02:30:34;646.63;;;582.63;;
52888;SDS011;41413;52.770;6.892;2023-05-13T02:33:01;584.50;;;527.35;;
52888;SDS011;41413;52.770;6.892;2023-05-13T02:35:28;675.58;;;605.60;;
52888;SDS011;41413;52.770;6.892;2023-05-13T02:37:55;637.03;;;572.67;;
52888;SDS011;41413;52.770;6.892;2023-05-13T02:40:22;665.72;;;601.75;;
52888;SDS011;41413;52.770;6.892;2023-05-13T02:42:49;629.47;;;566.70;;
52888;SDS011;41413;52.770;6.892;2023-05-13T02:45:16;627.90;;;565.58;;
52888;SDS011;41413;52.770;6.892;2023-05-13T02:47:42;655.88;;;589.55;;
52888;SDS011;41413;52.770;6.892;2023-05-13T02:50:09;685.53;;;615.97;;
52888;SDS011;41413;52.770;6.892;2023-05-13T02:52:37;663.15;;;596.45;;
52888;SDS011;41413;52.770;6.892;2023-05-13T02:55:05;718.10;;;647.30;;
52888;SDS011;41413;52.770;6.892;2023-05-13T02:57:33;683.33;;;614.53;;
52888;SDS011;41413;52.770;6.892;2023-05-13T03:00:01;686.10;;;616.53;;
52888;SDS011;41413;52.770;6.892;2023-05-13T03:02:29;661.35;;;593.05;;
52888;SDS011;41413;52.770;6.892;2023-05-13T03:05:00;643.08;;;578.40;;
52888;SDS011;41413;52.770;6.892;2023-05-13T03:07:26;644.85;;;582.63;;
52888;SDS011;41413;52.770;6.892;2023-05-13T03:09:53;681.70;;;610.35;;
52888;SDS011;41413;52.770;6.892;2023-05-13T03:12:20;659.47;;;590.33;;
52888;SDS011;41413;52.770;6.892;2023-05-13T03:14:46;691.33;;;620.08;;
52888;SDS011;41413;52.770;6.892;2023-05-13T03:17:13;666.20;;;600.72;;
52888;SDS011;41413;52.770;6.892;2023-05-13T03:19:40;649.45;;;582.15;;
52888;SDS011;41413;52.770;6.892;2023-05-13T03:22:07;661.63;;;595.58;;
52888;SDS011;41413;52.770;6.892;2023-05-13T03:24:33;639.75;;;575.42;;
52888;SDS011;41413;52.770;6.892;2023-05-13T03:27:00;655.10;;;588.70;;
52888;SDS011;41413;52.770;6.892;2023-05-13T03:29:27;680.88;;;611.97;;
52888;SDS011;41413;52.770;6.892;2023-05-13T03:31:53;659.63;;;593.17;;
52888;SDS011;41413;52.770;6.892;2023-05-13T03:34:20;654.15;;;585.78;;
52888;SDS011;41413;52.770;6.892;2023-05-13T03:36:47;676.45;;;607.95;;
52888;SDS011;41413;52.770;6.892;2023-05-13T03:39:13;649.97;;;584.78;;
52888;SDS011;41413;52.770;6.892;2023-05-13T03:41:41;670.88;;;603.13;;
52888;SDS011;41413;52.770;6.892;2023-05-13T03:44:08;634.95;;;573.58;;
52888;SDS011;41413;52.770;6.892;2023-05-13T03:46:34;672.92;;;604.03;;
52888;SDS011;41413;52.770;6.892;2023-05-13T03:49:01;610.50;;;546.85;;
52888;SDS011;41413;52.770;6.892;2023-05-13T03:51:28;659.03;;;589.80;;
52888;SDS011;41413;52.770;6.892;2023-05-13T03:53:55;654.63;;;589.33;;
52888;SDS011;41413;52.770;6.892;2023-05-13T03:56:21;659.33;;;593.35;;
52888;SDS011;41413;52.770;6.892;2023-05-13T03:58:48;698.50;;;627.65;;
52888;SDS011;41413;52.770;6.892;2023-05-13T04:01:15;647.80;;;583.40;;
52888;SDS011;41413;52.770;6.892;2023-05-13T04:03:41;610.63;;;548.75;;
52888;SDS011;41413;52.770;6.892;2023-05-13T04:06:11;667.75;;;599.45;;
52888;SDS011;41413;52.770;6.892;2023-05-13T04:08:39;675.63;;;609.15;;
52888;SDS011;41413;52.770;6.892;2023-05-13T04:11:06;647.03;;;584.03;;
52888;SDS011;41413;52.770;6.892;2023-05-13T04:13:33;678.55;;;610.78;;
52888;SDS011;41413;52.770;6.892;2023-05-13T04:16:01;662.70;;;595.40;;
52888;SDS011;41413;52.770;6.892;2023-05-13T04:18:28;670.97;;;601.58;;
52888;SDS011;41413;52.770;6.892;2023-05-13T04:20:57;679.70;;;609.28;;
52888;SDS011;41413;52.770;6.892;2023-05-13T04:23:23;665.40;;;599.85;;
52888;SDS011;41413;52.770;6.892;2023-05-13T04:25:50;659.00;;;592.78;;
52888;SDS011;41413;52.770;6.892;2023-05-13T04:28:18;663.88;;;596.38;;
52888;SDS011;41413;52.770;6.892;2023-05-13T04:30:45;646.20;;;578.80;;
52888;SDS011;41413;52.770;6.892;2023-05-13T04:33:12;651.38;;;585.33;;
52888;SDS011;41413;52.770;6.892;2023-05-13T04:35:39;631.53;;;568.80;;
52888;SDS011;41413;52.770;6.892;2023-05-13T04:38:05;658.53;;;593.50;;
52888;SDS011;41413;52.770;6.892;2023-05-13T04:40:32;680.97;;;611.05;;
52888;SDS011;41413;52.770;6.892;2023-05-13T04:42:59;666.30;;;600.42;;
52888;SDS011;41413;52.770;6.892;2023-05-13T04:45:25;634.25;;;571.60;;
52888;SDS011;41413;52.770;6.892;2023-05-13T04:47:52;672.13;;;604.75;;
52888;SDS011;41413;52.770;6.892;2023-05-13T04:50:22;679.22;;;609.28;;
52888;SDS011;41413;52.770;6.892;2023-05-13T04:52:50;632.72;;;567.75;;
52888;SDS011;41413;52.770;6.892;2023-05-13T04:55:17;683.55;;;613.97;;
52888;SDS011;41413;52.770;6.892;2023-05-13T04:57:43;713.22;;;644.00;;
52888;SDS011;41413;52.770;6.892;2023-05-13T05:00:10;698.78;;;628.58;;
52888;SDS011;41413;52.770;6.892;2023-05-13T05:02:37;620.85;;;557.50;;
52888;SDS011;41413;52.770;6.892;2023-05-13T05:05:04;663.22;;;595.90;;
52888;SDS011;41413;52.770;6.892;2023-05-13T05:07:31;664.50;;;596.28;;
52888;SDS011;41413;52.770;6.892;2023-05-13T05:09:58;660.97;;;593.50;;
52888;SDS011;41413;52.770;6.892;2023-05-13T05:12:25;656.03;;;590.70;;
52888;SDS011;41413;52.770;6.892;2023-05-13T05:14:51;666.35;;;597.25;;
52888;SDS011;41413;52.770;6.892;2023-05-13T05:17:18;677.65;;;607.88;;
52888;SDS011;41413;52.770;6.892;2023-05-13T05:19:44;697.38;;;627.15;;
52888;SDS011;41413;52.770;6.892;2023-05-13T05:22:11;637.47;;;572.85;;
52888;SDS011;41413;52.770;6.892;2023-05-13T05:24:38;679.83;;;610.90;;
52888;SDS011;41413;52.770;6.892;2023-05-13T05:27:04;669.35;;;602.20;;
52888;SDS011;41413;52.770;6.892;2023-05-13T05:29:32;659.97;;;592.67;;
52888;SDS011;41413;52.770;6.892;2023-05-13T05:31:58;672.28;;;603.00;;
52888;SDS011;41413;52.770;6.892;2023-05-13T05:34:25;687.88;;;616.33;;
52888;SDS011;41413;52.770;6.892;2023-05-13T05:36:52;592.40;;;531.10;;
52888;SDS011;41413;52.770;6.892;2023-05-13T05:39:20;688.50;;;620.65;;
52888;SDS011;41413;52.770;6.892;2023-05-13T05:41:47;681.33;;;612.38;;
52888;SDS011;41413;52.770;6.892;2023-05-13T05:44:13;641.35;;;579.20;;
52888;SDS011;41413;52.770;6.892;2023-05-13T05:46:40;712.08;;;642.58;;
52888;SDS011;41413;52.770;6.892;2023-05-13T05:49:07;624.60;;;563.97;;
52888;SDS011;41413;52.770;6.892;2023-05-13T05:51:34;695.13;;;624.42;;
52888;SDS011;41413;52.770;6.892;2023-05-13T05:54:00;650.75;;;587.00;;
52888;SDS011;41413;52.770;6.892;2023-05-13T05:56:27;655.63;;;588.55;;
52888;SDS011;41413;52.770;6.892;2023-05-13T05:58:54;621.63;;;559.80;;
52888;SDS011;41413;52.770;6.892;2023-05-13T06:01:20;652.78;;;584.67;;
52888;SDS011;41413;52.770;6.892;2023-05-13T06:03:47;689.67;;;618.95;;
52888;SDS011;41413;52.770;6.892;2023-05-13T06:06:16;682.20;;;614.50;;
52888;SDS011;41413;52.770;6.892;2023-05-13T06:08:42;587.20;;;528.78;;
52888;SDS011;41413;52.770;6.892;2023-05-13T06:11:09;654.60;;;591.33;;
52888;SDS011;41413;52.770;6.892;2023-05-13T06:13:36;669.42;;;601.33;;
52888;SDS011;41413;52.770;6.892;2023-05-13T06:16:03;635.85;;;572.83;;
52888;SDS011;41413;52.770;6.892;2023-05-13T06:18:30;657.83;;;592.90;;
52888;SDS011;41413;52.770;6.892;2023-05-13T06:20:57;598.65;;;540.25;;
52888;SDS011;41413;52.770;6.892;2023-05-13T06:23:24;670.95;;;603.25;;
52888;SDS011;41413;52.770;6.892;2023-05-13T06:25:50;665.15;;;599.85;;
52888;SDS011;41413;52.770;6.892;2023-05-13T06:28:17;705.15;;;637.35;;
52888;SDS011;41413;52.770;6.892;2023-05-13T06:30:44;645.08;;;581.75;;
52888;SDS011;41413;52.770;6.892;2023-05-13T06:33:11;655.58;;;592.80;;
52888;SDS011;41413;52.770;6.892;2023-05-13T06:35:38;630.67;;;571.88;;
52888;SDS011;41413;52.770;6.892;2023-05-13T06:38:04;600.75;;;542.75;;
52888;SDS011;41413;52.770;6.892;2023-05-13T06:40:31;514.90;;;467.83;;
52888;SDS011;41413;52.770;6.892;2023-05-13T06:42:58;584.53;;;528.80;;
52888;SDS011;41413;52.770;6.892;2023-05-13T06:45:25;552.13;;;500.52;;
52888;SDS011;41413;52.770;6.892;2023-05-13T06:47:51;520.53;;;474.23;;
52888;SDS011;41413;52.770;6.892;2023-05-13T06:50:18;469.85;;;426.42;;
52888;SDS011;41413;52.770;6.892;2023-05-13T06:52:46;557.63;;;505.55;;
52888;SDS011;41413;52.770;6.892;2023-05-13T06:55:13;537.53;;;487.92;;
52888;SDS011;41413;52.770;6.892;2023-05-13T06:57:41;526.95;;;478.02;;
52888;SDS011;41413;52.770;6.892;2023-05-13T07:00:12;550.63;;;499.17;;
52888;SDS011;41413;52.770;6.892;2023-05-13T07:02:39;519.72;;;472.38;;
52888;SDS011;41413;52.770;6.892;2023-05-13T07:05:07;515.30;;;469.33;;
52888;SDS011;41413;52.770;6.892;2023-05-13T07:07:36;504.27;;;457.77;;
52888;SDS011;41413;52.770;6.892;2023-05-13T07:10:03;532.45;;;486.02;;
52888;SDS011;41413;52.770;6.892;2023-05-13T07:12:31;470.75;;;427.02;;
52888;SDS011;41413;52.770;6.892;2023-05-13T07:14:58;460.65;;;418.38;;
52888;SDS011;41413;52.770;6.892;2023-05-13T07:17:25;489.95;;;444.77;;
52888;SDS011;41413;52.770;6.892;2023-05-13T07:19:52;538.72;;;490.58;;
52888;SDS011;41413;52.770;6.892;2023-05-13T07:22:18;571.65;;;520.05;;
52888;SDS011;41413;52.770;6.892;2023-05-13T07:24:45;524.85;;;478.30;;
52888;SDS011;41413;52.770;6.892;2023-05-13T07:27:12;488.20;;;445.67;;
52888;SDS011;41413;52.770;6.892;2023-05-13T07:32:08;502.60;;;456.27;;
52888;SDS011;41413;52.770;6.892;2023-05-13T07:34:35;502.15;;;455.85;;
52888;SDS011;41413;52.770;6.892;2023-05-13T07:37:02;548.30;;;496.92;;
52888;SDS011;41413;52.770;6.892;2023-05-13T07:39:29;527.40;;;479.73;;
52888;SDS011;41413;52.770;6.892;2023-05-13T07:41:56;529.63;;;482.05;;
52888;SDS011;41413;52.770;6.892;2023-05-13T07:44:23;506.17;;;459.17;;
52888;SDS011;41413;52.770;6.892;2023-05-13T07:46:51;587.90;;;534.40;;
52888;SDS011;41413;52.770;6.892;2023-05-13T07:49:19;529.22;;;479.38;;
52888;SDS011;41413;52.770;6.892;2023-05-13T07:51:46;554.50;;;504.63;;
52888;SDS011;41413;52.770;6.892;2023-05-13T07:54:13;546.70;;;497.17;;
52888;SDS011;41413;52.770;6.892;2023-05-13T07:56:40;559.95;;;508.42;;
52888;SDS011;41413;52.770;6.892;2023-05-13T07:59:09;509.52;;;462.15;;
52888;SDS011;41413;52.770;6.892;2023-05-13T08:01:36;619.80;;;562.17;;
52888;SDS011;41413;52.770;6.892;2023-05-13T08:04:03;445.95;;;406.17;;
52888;SDS011;41413;52.770;6.892;2023-05-13T08:06:30;621.75;;;563.40;;
52888;SDS011;41413;52.770;6.892;2023-05-13T08:08:58;532.40;;;484.00;;
52888;SDS011;41413;52.770;6.892;2023-05-13T08:11:25;511.10;;;464.80;;
52888;SDS011;41413;52.770;6.892;2023-05-13T08:13:52;526.15;;;478.55;;
52888;SDS011;41413;52.770;6.892;2023-05-13T08:16:18;572.65;;;520.00;;
52888;SDS011;41413;52.770;6.892;2023-05-13T08:18:45;441.65;;;400.13;;
52888;SDS011;41413;52.770;6.892;2023-05-13T08:21:15;560.40;;;509.15;;
52888;SDS011;41413;52.770;6.892;2023-05-13T08:23:41;497.63;;;451.90;;
52888;SDS011;41413;52.770;6.892;2023-05-13T08:26:11;516.30;;;468.17;;
52888;SDS011;41413;52.770;6.892;2023-05-13T08:28:38;601.78;;;546.63;;
52888;SDS011;41413;52.770;6.892;2023-05-13T08:31:05;506.05;;;461.85;;
52888;SDS011;41413;52.770;6.892;2023-05-13T08:33:31;571.47;;;520.88;;
52888;SDS011;41413;52.770;6.892;2023-05-13T08:35:59;441.35;;;403.52;;
52888;SDS011;41413;52.770;6.892;2023-05-13T08:38:25;378.50;;;348.27;;
52888;SDS011;41413;52.770;6.892;2023-05-13T08:40:52;369.70;;;342.92;;
52888;SDS011;41413;52.770;6.892;2023-05-13T08:43:19;135.90;;;128.00;;
52888;SDS011;41413;52.770;6.892;2023-05-13T08:45:49;13.30;;;12.20;;
52888;SDS011;41413;52.770;6.892;2023-05-13T08:48:18;12.43;;;11.20;;
52888;SDS011;41413;52.770;6.892;2023-05-13T08:50:45;11.63;;;9.80;;
52888;SDS011;41413;52.770;6.892;2023-05-13T08:53:12;11.38;;;9.93;;
52888;SDS011;41413;52.770;6.892;2023-05-13T08:55:42;10.65;;;9.10;;
52888;SDS011;41413;52.770;6.892;2023-05-13T08:58:09;12.48;;;10.15;;
52888;SDS011;41413;52.770;6.892;2023-05-13T09:00:35;11.30;;;10.38;;
52888;SDS011;41413;52.770;6.892;2023-05-13T09:03:02;9.38;;;8.65;;
52888;SDS011;41413;52.770;6.892;2023-05-13T09:05:29;9.40;;;8.50;;
52888;SDS011;41413;52.770;6.892;2023-05-13T09:07:57;8.60;;;8.02;;
52888;SDS011;41413;52.770;6.892;2023-05-13T09:10:25;11.00;;;9.85;;
52888;SDS011;41413;52.770;6.892;2023-05-13T09:12:53;10.30;;;9.07;;
52888;SDS011;41413;52.770;6.892;2023-05-13T09:15:25;10.13;;;9.13;;
52888;SDS011;41413;52.770;6.892;2023-05-13T09:17:53;9.43;;;8.55;;
52888;SDS011;41413;52.770;6.892;2023-05-13T09:20:23;9.77;;;8.88;;
52888;SDS011;41413;52.770;6.892;2023-05-13T09:22:52;9.98;;;9.20;;
52888;SDS011;41413;52.770;6.892;2023-05-13T09:25:22;9.90;;;9.10;;
52888;SDS011;41413;52.770;6.892;2023-05-13T09:27:53;8.63;;;7.93;;
52888;SDS011;41413;52.770;6.892;2023-05-13T09:30:26;10.48;;;9.60;;
52888;SDS011;41413;52.770;6.892;2023-05-13T09:35:48;9.80;;;8.27;;
52888;SDS011;41413;52.770;6.892;2023-05-13T09:38:23;7.63;;;7.05;;
52888;SDS011;41413;52.770;6.892;2023-05-13T09:40:54;8.35;;;7.65;;
52888;SDS011;41413;52.770;6.892;2023-05-13T09:43:26;9.35;;;8.10;;
52888;SDS011;41413;52.770;6.892;2023-05-13T09:45:57;10.80;;;8.43;;
52888;SDS011;41413;52.770;6.892;2023-05-13T09:48:27;10.35;;;9.30;;
52888;SDS011;41413;52.770;6.892;2023-05-13T09:50:55;10.43;;;7.57;;
52888;SDS011;41413;52.770;6.892;2023-05-13T09:53:25;10.88;;;9.00;;
52888;SDS011;41413;52.770;6.892;2023-05-13T09:55:53;9.48;;;8.65;;
52888;SDS011;41413;52.770;6.892;2023-05-13T09:58:21;9.05;;;7.47;;
52888;SDS011;41413;52.770;6.892;2023-05-13T10:00:49;9.98;;;8.98;;
52888;SDS011;41413;52.770;6.892;2023-05-13T10:03:17;10.27;;;8.20;;
52888;SDS011;41413;52.770;6.892;2023-05-13T10:05:44;9.20;;;7.32;;
52888;SDS011;41413;52.770;6.892;2023-05-13T10:08:11;7.65;;;7.00;;
52888;SDS011;41413;52.770;6.892;2023-05-13T10:10:40;7.75;;;7.05;;
52888;SDS011;41413;52.770;6.892;2023-05-13T10:13:08;8.63;;;7.07;;
52888;SDS011;41413;52.770;6.892;2023-05-13T10:15:41;7.63;;;6.93;;
52888;SDS011;41413;52.770;6.892;2023-05-13T10:18:15;11.75;;;8.40;;
52888;SDS011;41413;52.770;6.892;2023-05-13T10:20:43;11.32;;;7.97;;
52888;SDS011;41413;52.770;6.892;2023-05-13T10:23:10;7.45;;;6.72;;
52888;SDS011;41413;52.770;6.892;2023-05-13T10:25:38;8.00;;;6.38;;
52888;SDS011;41413;52.770;6.892;2023-05-13T10:28:05;7.53;;;6.95;;
52888;SDS011;41413;52.770;6.892;2023-05-13T10:30:31;11.55;;;7.10;;
52888;SDS011;41413;52.770;6.892;2023-05-13T10:33:01;9.90;;;7.22;;
52888;SDS011;41413;52.770;6.892;2023-05-13T10:35:30;6.85;;;6.45;;
52888;SDS011;41413;52.770;6.892;2023-05-13T10:38:14;6.93;;;6.32;;
52888;SDS011;41413;52.770;6.892;2023-05-13T10:40:54;8.93;;;6.10;;
52888;SDS011;41413;52.770;6.892;2023-05-13T10:43:27;6.20;;;5.10;;
52888;SDS011;41413;52.770;6.892;2023-05-13T10:45:56;6.75;;;6.25;;
52888;SDS011;41413;52.770;6.892;2023-05-13T10:48:37;6.43;;;6.00;;
52888;SDS011;41413;52.770;6.892;2023-05-13T10:51:06;6.35;;;5.75;;
52888;SDS011;41413;52.770;6.892;2023-05-13T10:53:49;6.50;;;6.05;;
52888;SDS011;41413;52.770;6.892;2023-05-13T10:56:19;6.53;;;5.53;;
52888;SDS011;41413;52.770;6.892;2023-05-13T10:58:57;8.50;;;7.03;;
52888;SDS011;41413;52.770;6.892;2023-05-13T11:01:34;8.45;;;5.72;;
52888;SDS011;41413;52.770;6.892;2023-05-13T11:04:16;7.53;;;5.03;;
52888;SDS011;41413;52.770;6.892;2023-05-13T11:06:46;6.05;;;5.40;;
52888;SDS011;41413;52.770;6.892;2023-05-13T11:11:54;6.82;;;5.80;;
52888;SDS011;41413;52.770;6.892;2023-05-13T11:14:26;10.95;;;5.45;;
52888;SDS011;41413;52.770;6.892;2023-05-13T11:19:43;5.57;;;5.13;;
52888;SDS011;41413;52.770;6.892;2023-05-13T11:22:22;5.65;;;5.07;;
52888;SDS011;41413;52.770;6.892;2023-05-13T11:27:40;6.05;;;5.22;;
52888;SDS011;41413;52.770;6.892;2023-05-13T11:30:19;7.53;;;5.40;;
52888;SDS011;41413;52.770;6.892;2023-05-13T11:32:57;5.40;;;5.00;;
52888;SDS011;41413;52.770;6.892;2023-05-13T11:35:25;6.38;;;5.25;;
52888;SDS011;41413;52.770;6.892;2023-05-13T11:37:59;5.57;;;4.93;;
52888;SDS011;41413;52.770;6.892;2023-05-13T11:40:29;5.75;;;5.15;;
52888;SDS011;41413;52.770;6.892;2023-05-13T11:43:00;5.55;;;4.78;;
52888;SDS011;41413;52.770;6.892;2023-05-13T11:45:27;7.60;;;4.63;;
52888;SDS011;41413;52.770;6.892;2023-05-13T11:47:56;5.07;;;4.60;;
52888;SDS011;41413;52.770;6.892;2023-05-13T11:50:28;5.47;;;4.97;;
52888;SDS011;41413;52.770;6.892;2023-05-13T11:52:56;6.35;;;5.43;;
52888;SDS011;41413;52.770;6.892;2023-05-13T11:55:28;5.50;;;4.90;;
52888;SDS011;41413;52.770;6.892;2023-05-13T11:57:56;6.50;;;4.45;;
52888;SDS011;41413;52.770;6.892;2023-05-13T12:00:27;5.68;;;5.13;;
52888;SDS011;41413;52.770;6.892;2023-05-13T12:02:59;6.28;;;4.88;;
52888;SDS011;41413;52.770;6.892;2023-05-13T12:05:34;8.10;;;5.45;;
52888;SDS011;41413;52.770;6.892;2023-05-13T12:08:01;7.80;;;4.45;;
52888;SDS011;41413;52.770;6.892;2023-05-13T12:10:28;5.50;;;4.97;;
52888;SDS011;41413;52.770;6.892;2023-05-13T12:12:54;3.85;;;3.55;;
52888;SDS011;41413;52.770;6.892;2023-05-13T12:15:22;5.45;;;4.65;;
52888;SDS011;41413;52.770;6.892;2023-05-13T12:17:49;5.70;;;4.22;;
52888;SDS011;41413;52.770;6.892;2023-05-13T12:20:17;6.10;;;5.65;;
52888;SDS011;41413;52.770;6.892;2023-05-13T12:22:50;5.22;;;4.75;;
52888;SDS011;41413;52.770;6.892;2023-05-13T12:30:53;7.22;;;5.05;;
52888;SDS011;41413;52.770;6.892;2023-05-13T12:33:28;6.50;;;4.95;;
52888;SDS011;41413;52.770;6.892;2023-05-13T12:39:02;5.15;;;4.65;;
52888;SDS011;41413;52.770;6.892;2023-05-13T12:41:35;9.05;;;5.43;;
52888;SDS011;41413;52.770;6.892;2023-05-13T12:44:06;4.55;;;4.25;;
52888;SDS011;41413;52.770;6.892;2023-05-13T12:46:34;5.25;;;4.70;;
52888;SDS011;41413;52.770;6.892;2023-05-13T12:49:03;5.47;;;4.50;;
52888;SDS011;41413;52.770;6.892;2023-05-13T12:51:30;5.63;;;4.97;;
52888;SDS011;41413;52.770;6.892;2023-05-13T12:53:58;5.35;;;4.18;;
52888;SDS011;41413;52.770;6.892;2023-05-13T12:56:25;6.28;;;5.03;;
52888;SDS011;41413;52.770;6.892;2023-05-13T12:58:52;4.50;;;4.18;;
52888;SDS011;41413;52.770;6.892;2023-05-13T13:01:20;5.15;;;4.43;;
52888;SDS011;41413;52.770;6.892;2023-05-13T13:03:47;5.40;;;4.75;;
52888;SDS011;41413;52.770;6.892;2023-05-13T13:06:14;6.35;;;5.13;;
52888;SDS011;41413;52.770;6.892;2023-05-13T13:08:41;8.13;;;4.60;;
52888;SDS011;41413;52.770;6.892;2023-05-13T13:11:08;4.70;;;4.30;;
52888;SDS011;41413;52.770;6.892;2023-05-13T13:13:34;4.80;;;4.45;;
52888;SDS011;41413;52.770;6.892;2023-05-13T13:16:04;8.57;;;4.30;;
52888;SDS011;41413;52.770;6.892;2023-05-13T13:18:31;5.00;;;4.53;;
52888;SDS011;41413;52.770;6.892;2023-05-13T13:20:58;8.57;;;4.88;;
52888;SDS011;41413;52.770;6.892;2023-05-13T13:23:25;5.15;;;4.50;;
52888;SDS011;41413;52.770;6.892;2023-05-13T13:25:51;10.07;;;4.82;;
52888;SDS011;41413;52.770;6.892;2023-05-13T13:28:18;4.82;;;4.43;;
52888;SDS011;41413;52.770;6.892;2023-05-13T13:30:45;5.05;;;4.28;;
52888;SDS011;41413;52.770;6.892;2023-05-13T13:33:13;7.72;;;4.38;;
52888;SDS011;41413;52.770;6.892;2023-05-13T13:35:44;5.35;;;4.50;;
52888;SDS011;41413;52.770;6.892;2023-05-13T13:38:12;6.82;;;4.63;;
52888;SDS011;41413;52.770;6.892;2023-05-13T13:40:39;5.07;;;3.33;;
52888;SDS011;41413;52.770;6.892;2023-05-13T13:43:06;6.00;;;4.68;;
52888;SDS011;41413;52.770;6.892;2023-05-13T13:45:33;4.70;;;4.30;;
52888;SDS011;41413;52.770;6.892;2023-05-13T13:48:01;4.75;;;4.35;;
52888;SDS011;41413;52.770;6.892;2023-05-13T13:50:28;6.25;;;4.47;;
52888;SDS011;41413;52.770;6.892;2023-05-13T13:52:55;8.70;;;3.95;;
52888;SDS011;41413;52.770;6.892;2023-05-13T13:55:22;7.55;;;4.70;;
52888;SDS011;41413;52.770;6.892;2023-05-13T13:57:49;6.03;;;3.33;;
52888;SDS011;41413;52.770;6.892;2023-05-13T14:00:17;6.60;;;4.05;;
52888;SDS011;41413;52.770;6.892;2023-05-13T14:02:44;6.78;;;4.25;;
52888;SDS011;41413;52.770;6.892;2023-05-13T14:05:11;4.22;;;3.72;;
52888;SDS011;41413;52.770;6.892;2023-05-13T14:07:38;5.38;;;4.90;;
52888;SDS011;41413;52.770;6.892;2023-05-13T14:10:05;4.47;;;4.07;;
52888;SDS011;41413;52.770;6.892;2023-05-13T14:12:33;4.50;;;4.10;;
52888;SDS011;41413;52.770;6.892;2023-05-13T14:15:01;6.13;;;4.05;;
52888;SDS011;41413;52.770;6.892;2023-05-13T14:17:28;5.90;;;4.70;;
52888;SDS011;41413;52.770;6.892;2023-05-13T14:19:55;4.53;;;4.22;;
52888;SDS011;41413;52.770;6.892;2023-05-13T14:22:22;5.70;;;4.85;;
52888;SDS011;41413;52.770;6.892;2023-05-13T14:24:52;4.65;;;3.97;;
52888;SDS011;41413;52.770;6.892;2023-05-13T14:27:19;7.28;;;4.35;;
52888;SDS011;41413;52.770;6.892;2023-05-13T14:29:47;6.20;;;4.32;;
52888;SDS011;41413;52.770;6.892;2023-05-13T14:32:14;5.35;;;4.63;;
52888;SDS011;41413;52.770;6.892;2023-05-13T14:34:41;6.00;;;5.18;;
52888;SDS011;41413;52.770;6.892;2023-05-13T14:37:08;7.43;;;5.22;;
52888;SDS011;41413;52.770;6.892;2023-05-13T14:39:34;5.22;;;4.75;;
52888;SDS011;41413;52.770;6.892;2023-05-13T14:42:02;4.90;;;4.50;;
52888;SDS011;41413;52.770;6.892;2023-05-13T14:44:29;8.88;;;4.55;;
52888;SDS011;41413;52.770;6.892;2023-05-13T14:46:56;11.98;;;4.85;;
52888;SDS011;41413;52.770;6.892;2023-05-13T14:49:23;6.30;;;5.07;;
52888;SDS011;41413;52.770;6.892;2023-05-13T14:51:50;9.32;;;5.28;;